createdAt,value
2022-08-04T00:01:53.512Z,5.38
2022-08-04T00:04:19.846Z,5.35
2022-08-04T00:06:46.091Z,4.90
2022-08-04T00:09:12.320Z,5.05
2022-08-04T00:11:38.531Z,5.47
2022-08-04T00:14:04.782Z,5.78
2022-08-04T00:16:32.694Z,5.75
2022-08-04T00:19:01.356Z,4.50
2022-08-04T00:21:27.603Z,5.05
2022-08-04T00:24:11.553Z,5.45
2022-08-04T00:26:38.724Z,5.32
2022-08-04T00:29:04.960Z,4.93
2022-08-04T00:31:33.248Z,4.70
2022-08-04T00:34:17.409Z,5.20
2022-08-04T00:36:43.618Z,5.78
2022-08-04T00:39:09.889Z,4.72
2022-08-04T00:41:36.147Z,5.60
2022-08-04T00:44:23.754Z,4.40
2022-08-04T00:46:50.270Z,6.10
2022-08-04T00:49:16.536Z,7.10
2022-08-04T00:51:42.791Z,6.35
2022-08-04T00:54:09.026Z,6.88
2022-08-04T00:56:35.269Z,6.00
2022-08-04T00:59:01.552Z,6.20
2022-08-04T01:01:27.816Z,7.00
2022-08-04T01:03:54.106Z,5.97
2022-08-04T01:06:20.337Z,7.40
2022-08-04T01:08:46.549Z,6.75
2022-08-04T01:11:12.817Z,6.78
2022-08-04T01:13:39.032Z,6.28
2022-08-04T01:16:05.281Z,7.78
2022-08-04T01:18:31.524Z,6.55
2022-08-04T01:20:57.769Z,4.63
2022-08-04T01:23:23.988Z,6.18
2022-08-04T01:25:50.215Z,5.18
2022-08-04T01:28:16.419Z,5.35
2022-08-04T01:30:43.910Z,4.80
2022-08-04T01:33:10.165Z,6.07
2022-08-04T01:35:47.265Z,5.80
2022-08-04T01:38:20.849Z,5.50
2022-08-04T01:40:47.942Z,5.60
2022-08-04T01:43:14.175Z,5.88
2022-08-04T01:45:40.425Z,5.70
2022-08-04T01:48:06.711Z,6.70
2022-08-04T01:50:33.001Z,5.63
2022-08-04T01:52:59.211Z,5.20
2022-08-04T01:55:25.452Z,5.40
2022-08-04T01:58:11.665Z,6.43
2022-08-04T02:00:37.945Z,5.43
2022-08-04T02:03:04.303Z,4.90
2022-08-04T02:06:02.550Z,5.00
2022-08-04T02:08:16.932Z,4.95
2022-08-04T02:10:43.209Z,4.88
2022-08-04T02:13:09.465Z,6.20
2022-08-04T02:15:35.707Z,6.05
2022-08-04T02:18:01.935Z,5.88
2022-08-04T02:20:28.180Z,5.35
2022-08-04T02:22:54.397Z,6.03
2022-08-04T02:25:20.648Z,5.25
2022-08-04T02:27:59.622Z,5.32
2022-08-04T02:30:26.908Z,5.50
2022-08-04T02:32:53.148Z,6.00
2022-08-04T02:35:19.403Z,5.45
2022-08-04T02:37:45.647Z,5.65
2022-08-04T02:40:11.874Z,5.97
2022-08-04T02:42:38.139Z,6.10
2022-08-04T02:45:04.388Z,6.13
2022-08-04T02:48:29.159Z,5.22
2022-08-04T02:50:19.428Z,4.68
2022-08-04T02:52:55.450Z,4.95
2022-08-04T02:55:21.701Z,6.30
2022-08-04T02:57:47.940Z,5.88
2022-08-04T03:00:14.200Z,5.78
2022-08-04T03:02:40.425Z,6.82
2022-08-04T03:05:06.789Z,5.60
2022-08-04T03:07:33.025Z,6.30
2022-08-04T03:09:59.318Z,7.20
2022-08-04T03:12:25.546Z,5.07
2022-08-04T03:14:51.790Z,5.55
2022-08-04T03:17:18.018Z,6.82
2022-08-04T03:19:44.260Z,5.40
2022-08-04T03:22:10.488Z,5.70
2022-08-04T03:24:36.730Z,5.32
2022-08-04T03:27:02.945Z,6.55
2022-08-04T03:29:36.092Z,6.35
2022-08-04T03:32:03.489Z,6.13
2022-08-04T03:34:29.740Z,6.25
2022-08-04T03:36:56.013Z,7.25
2022-08-04T03:39:22.294Z,6.82
2022-08-04T03:41:51.282Z,6.07
2022-08-04T03:44:30.086Z,7.05
2022-08-04T03:46:56.314Z,6.57
2022-08-04T03:49:22.545Z,6.75
2022-08-04T03:51:48.797Z,6.50
2022-08-04T03:54:15.030Z,6.65
2022-08-04T03:56:41.292Z,6.63
2022-08-04T03:59:07.537Z,7.50
2022-08-04T04:02:01.299Z,6.20
2022-08-04T04:04:19.975Z,6.80
2022-08-04T04:06:53.738Z,6.40
2022-08-04T04:09:20.867Z,6.45
2022-08-04T04:11:57.111Z,7.53
2022-08-04T04:14:24.317Z,6.38
2022-08-04T04:16:50.567Z,7.53
2022-08-04T04:19:16.797Z,7.50
2022-08-04T04:21:43.034Z,7.15
2022-08-04T04:24:09.253Z,7.18
2022-08-04T04:26:35.495Z,7.55
2022-08-04T04:29:03.505Z,7.78
2022-08-04T04:31:29.953Z,8.27
2022-08-04T04:33:56.209Z,9.00
2022-08-04T04:36:22.460Z,7.50
2022-08-04T04:38:48.683Z,7.43
2022-08-04T04:41:15.110Z,7.63
2022-08-04T04:43:51.850Z,7.45
2022-08-04T04:46:18.639Z,7.45
2022-08-04T04:48:44.865Z,8.10
2022-08-04T04:51:11.100Z,8.23
2022-08-04T04:53:37.340Z,8.70
2022-08-04T04:56:03.599Z,8.07
2022-08-04T04:58:29.816Z,9.18
2022-08-04T05:00:56.062Z,8.32
2022-08-04T05:03:22.292Z,9.07
2022-08-04T05:05:48.567Z,8.18
2022-08-04T05:08:44.205Z,8.23
2022-08-04T05:11:01.050Z,8.27
2022-08-04T05:14:37.971Z,9.25
2022-08-04T05:16:13.526Z,7.85
2022-08-04T05:18:39.747Z,8.50
2022-08-04T05:21:06.011Z,7.47
2022-08-04T05:23:32.319Z,7.72
2022-08-04T05:25:59.750Z,7.65
2022-08-04T05:28:26.364Z,7.35
2022-08-04T05:30:52.695Z,7.13
2022-08-04T05:33:18.981Z,9.02
2022-08-04T05:36:16.999Z,7.45
2022-08-04T05:38:31.483Z,8.20
2022-08-04T05:40:57.740Z,8.73
2022-08-04T05:43:23.962Z,7.50
2022-08-04T05:45:50.221Z,8.02
2022-08-04T05:48:16.443Z,8.27
2022-08-04T05:50:42.712Z,7.32
2022-08-04T05:53:08.939Z,8.65
2022-08-04T05:55:56.635Z,7.75
2022-08-04T05:58:21.422Z,8.00
2022-08-04T06:00:52.288Z,7.55
2022-08-04T06:03:18.881Z,8.55
2022-08-04T06:05:45.136Z,7.55
2022-08-04T06:08:12.667Z,7.47
2022-08-04T06:10:40.268Z,7.43
2022-08-04T06:13:06.498Z,7.93
2022-08-04T06:15:32.785Z,7.30
2022-08-04T06:18:33.233Z,7.22
2022-08-04T06:20:50.045Z,7.70
2022-08-04T06:23:17.111Z,7.28
2022-08-04T06:25:43.368Z,18.05
2022-08-04T06:28:09.592Z,16.70
2022-08-04T06:30:35.878Z,7.85
2022-08-04T06:33:03.352Z,7.18
2022-08-04T06:35:30.732Z,6.22
2022-08-04T06:38:00.727Z,7.45
2022-08-04T06:40:31.542Z,6.93
2022-08-04T06:42:59.362Z,5.68
2022-08-04T06:45:25.788Z,6.50
2022-08-04T06:47:52.218Z,5.45
2022-08-04T06:51:27.260Z,4.80
2022-08-04T06:53:04.868Z,5.47
2022-08-04T06:55:31.196Z,6.32
2022-08-04T06:58:02.488Z,6.22
2022-08-04T07:00:29.296Z,13.40
2022-08-04T07:02:55.716Z,6.45
2022-08-04T07:05:21.961Z,5.68
2022-08-04T07:07:57.350Z,6.85
2022-08-04T07:10:24.698Z,5.25
2022-08-04T07:12:51.080Z,5.28
2022-08-04T07:15:20.129Z,5.72
2022-08-04T07:17:46.346Z,5.75
2022-08-04T07:20:16.446Z,4.68
2022-08-04T07:23:01.411Z,8.80
2022-08-04T07:25:58.678Z,5.82
2022-08-04T07:28:13.881Z,5.80
2022-08-04T07:30:40.137Z,6.43
2022-08-04T07:33:06.372Z,5.10
2022-08-04T07:36:03.992Z,4.90
2022-08-04T07:38:18.824Z,5.88
2022-08-04T07:40:53.888Z,5.43
2022-08-04T07:43:20.107Z,6.35
2022-08-04T07:45:46.334Z,4.65
2022-08-04T07:48:12.839Z,4.78
2022-08-04T07:50:39.325Z,5.50
2022-08-04T07:53:53.251Z,5.00
2022-08-04T07:55:51.879Z,5.63
2022-08-04T07:58:18.127Z,4.60
2022-08-04T08:00:44.448Z,4.35
2022-08-04T08:03:10.735Z,4.30
2022-08-04T08:05:37.028Z,5.53
2022-08-04T08:08:23.248Z,5.03
2022-08-04T08:10:49.512Z,5.45
2022-08-04T08:13:15.809Z,5.43
2022-08-04T08:15:42.079Z,5.28
2022-08-04T08:18:08.308Z,5.43
2022-08-04T08:20:34.592Z,4.88
2022-08-04T08:23:00.935Z,5.35
2022-08-04T08:25:27.245Z,4.63
2022-08-04T08:27:55.778Z,7.88
2022-08-04T08:30:22.757Z,6.93
2022-08-04T08:32:49.650Z,5.63
2022-08-04T08:35:16.009Z,4.82
2022-08-04T08:37:42.415Z,5.82
2022-08-04T08:40:08.694Z,4.63
2022-08-04T08:42:34.940Z,5.20
2022-08-04T08:45:01.193Z,5.82
2022-08-04T08:47:27.417Z,4.38
2022-08-04T08:50:02.153Z,4.78
2022-08-04T08:52:55.373Z,5.43
2022-08-04T08:55:16.442Z,4.75
2022-08-04T08:57:43.998Z,3.70
2022-08-04T09:00:31.832Z,4.57
2022-08-04T09:03:04.496Z,4.70
2022-08-04T09:05:31.435Z,4.28
2022-08-04T09:07:57.715Z,4.47
2022-08-04T09:10:23.978Z,5.43
2022-08-04T09:12:50.314Z,3.83
2022-08-04T09:15:16.575Z,4.18
2022-08-04T09:17:42.821Z,3.22
2022-08-04T09:20:09.111Z,3.75
2022-08-04T09:22:35.382Z,4.35
2022-08-04T09:25:01.670Z,3.78
2022-08-04T09:27:27.914Z,3.10
2022-08-04T09:29:54.191Z,4.97
2022-08-04T09:32:20.420Z,3.60
2022-08-04T09:34:46.732Z,3.47
2022-08-04T09:37:29.976Z,3.35
2022-08-04T09:39:56.255Z,3.35
2022-08-04T09:42:25.895Z,3.03
2022-08-04T09:44:56.395Z,3.72
2022-08-04T09:47:40.146Z,3.55
2022-08-04T09:50:07.052Z,3.85
2022-08-04T09:52:33.283Z,3.72
2022-08-04T09:54:59.533Z,3.58
2022-08-04T09:57:25.763Z,3.10
2022-08-04T09:59:52.058Z,2.85
2022-08-04T10:02:18.296Z,3.78
2022-08-04T10:04:44.552Z,3.90
2022-08-04T10:07:10.815Z,3.42
2022-08-04T10:09:37.036Z,4.93
2022-08-04T10:12:03.286Z,3.72
2022-08-04T10:14:29.509Z,3.15
2022-08-04T10:16:55.752Z,3.33
2022-08-04T10:19:22.018Z,3.83
2022-08-04T10:21:50.696Z,3.05
2022-08-04T10:24:26.194Z,3.65
2022-08-04T10:26:57.181Z,3.67
2022-08-04T10:29:23.823Z,3.70
2022-08-04T10:31:50.063Z,3.53
2022-08-04T10:34:16.733Z,3.38
2022-08-04T10:36:43.032Z,3.58
2022-08-04T10:39:09.885Z,3.33
2022-08-04T10:41:38.576Z,2.97
2022-08-04T10:44:04.815Z,2.95
2022-08-04T10:46:31.061Z,2.65
2022-08-04T10:48:57.349Z,4.10
2022-08-04T10:51:23.601Z,3.70
2022-08-04T10:53:50.111Z,2.85
2022-08-04T10:56:16.446Z,3.17
2022-08-04T10:58:47.060Z,3.08
2022-08-04T11:01:50.982Z,2.67
2022-08-04T11:04:01.206Z,2.70
2022-08-04T11:06:27.472Z,2.90
2022-08-04T11:08:53.703Z,2.97
2022-08-04T11:11:20.589Z,3.08
2022-08-04T11:13:47.276Z,2.53
2022-08-04T11:16:13.577Z,3.55
2022-08-04T11:18:39.804Z,2.72
2022-08-04T11:21:06.049Z,2.95
2022-08-04T11:23:32.266Z,3.22
2022-08-04T11:25:58.515Z,2.80
2022-08-04T11:28:24.772Z,2.67
2022-08-04T11:30:50.998Z,2.38
2022-08-04T11:33:17.315Z,2.65
2022-08-04T11:35:43.555Z,2.25
2022-08-04T11:38:09.783Z,2.40
2022-08-04T11:40:36.052Z,2.88
2022-08-04T11:43:02.281Z,2.47
2022-08-04T11:45:28.525Z,2.95
2022-08-04T11:47:54.801Z,4.13
2022-08-04T11:50:21.049Z,3.17
2022-08-04T11:52:47.278Z,2.40
2022-08-04T11:55:13.515Z,2.95
2022-08-04T11:57:39.773Z,2.00
2022-08-04T12:00:07.136Z,2.78
2022-08-04T12:02:33.935Z,2.92
2022-08-04T12:05:00.235Z,2.42
2022-08-04T12:07:31.119Z,2.70
2022-08-04T12:09:58.004Z,2.60
2022-08-04T12:12:24.228Z,3.92
2022-08-04T12:14:50.489Z,2.55
2022-08-04T12:17:16.745Z,2.67
2022-08-04T12:20:04.438Z,2.70
2022-08-04T12:22:32.078Z,2.55
2022-08-04T12:27:26.859Z,2.72
2022-08-04T12:30:58.173Z,2.40
2022-08-04T12:32:48.436Z,2.45
2022-08-04T12:35:19.855Z,2.22
2022-08-04T12:37:46.089Z,3.05
2022-08-04T12:40:28.634Z,2.47
2022-08-04T12:42:59.365Z,2.58
2022-08-04T12:45:26.200Z,2.70
2022-08-04T12:47:52.480Z,2.42
2022-08-04T12:50:18.734Z,2.35
2022-08-04T12:55:31.445Z,2.40
2022-08-04T12:57:57.705Z,2.83
2022-08-04T13:00:26.293Z,3.28
2022-08-04T13:02:55.339Z,2.45
2022-08-04T13:05:21.593Z,2.38
2022-08-04T13:07:47.815Z,2.33
2022-08-04T13:10:14.046Z,2.50
2022-08-04T13:12:44.586Z,2.47
2022-08-04T13:15:10.866Z,3.20
2022-08-04T13:17:44.518Z,2.00
2022-08-04T13:20:14.170Z,2.80
2022-08-04T13:22:46.351Z,2.13
2022-08-04T13:26:41.593Z,1.80
2022-08-04T13:27:59.125Z,2.80
2022-08-04T13:30:26.178Z,2.15
2022-08-04T13:32:52.412Z,2.33
2022-08-04T13:35:18.678Z,3.05
2022-08-04T13:37:44.899Z,2.35
2022-08-04T13:40:11.160Z,2.42
2022-08-04T13:42:37.388Z,2.72
2022-08-04T13:45:03.650Z,1.88
2022-08-04T13:47:29.876Z,2.45
2022-08-04T13:50:10.254Z,1.88
2022-08-04T13:52:37.697Z,2.13
2022-08-04T13:55:03.940Z,2.20
2022-08-04T13:57:30.140Z,2.33
2022-08-04T13:59:56.392Z,2.63
2022-08-04T14:02:22.622Z,2.38
2022-08-04T14:04:48.857Z,2.33
2022-08-04T14:07:17.700Z,2.15
2022-08-04T14:10:02.604Z,2.30
2022-08-04T14:12:45.813Z,2.25
2022-08-04T14:15:12.884Z,1.52
2022-08-04T14:17:39.124Z,1.77
2022-08-04T14:20:05.357Z,1.90
2022-08-04T14:22:31.576Z,2.25
2022-08-04T14:24:57.807Z,2.35
2022-08-04T14:27:24.351Z,2.20
2022-08-04T14:29:50.780Z,1.70
2022-08-04T14:32:22.913Z,1.52
2022-08-04T14:34:52.196Z,2.38
2022-08-04T14:37:20.083Z,1.98
2022-08-04T14:40:08.901Z,1.92
2022-08-04T14:42:33.317Z,1.80
2022-08-04T14:44:59.570Z,1.90
2022-08-04T14:47:25.815Z,1.38
2022-08-04T14:49:52.049Z,2.28
2022-08-04T14:52:18.294Z,1.70
2022-08-04T14:54:44.546Z,1.80
2022-08-04T14:57:10.819Z,2.00
2022-08-04T14:59:37.083Z,2.20
2022-08-04T15:02:03.388Z,1.75
2022-08-04T15:04:29.668Z,1.70
2022-08-04T15:06:55.918Z,1.80
2022-08-04T15:09:22.190Z,1.77
2022-08-04T15:11:48.443Z,2.05
2022-08-04T15:14:36.015Z,1.88
2022-08-04T15:17:00.897Z,1.48
2022-08-04T15:19:27.131Z,1.70
2022-08-04T15:21:53.392Z,1.80
2022-08-04T15:24:19.652Z,2.05
2022-08-04T15:26:45.866Z,2.15
2022-08-04T15:29:16.432Z,1.83
2022-08-04T15:32:06.495Z,2.40
2022-08-04T15:34:29.281Z,1.85
2022-08-04T15:36:56.427Z,1.45
2022-08-04T15:39:23.815Z,1.37
2022-08-04T15:41:55.468Z,1.45
2022-08-04T15:44:21.887Z,2.65
2022-08-04T15:46:48.153Z,2.05
2022-08-04T15:49:14.450Z,1.27
2022-08-04T15:51:40.747Z,1.40
2022-08-04T15:54:08.431Z,2.33
2022-08-04T15:56:42.658Z,2.05
2022-08-04T15:59:14.819Z,3.25
2022-08-04T16:02:11.707Z,2.53
2022-08-04T16:04:36.756Z,1.88
2022-08-04T16:07:02.980Z,2.63
2022-08-04T16:09:45.102Z,2.08
2022-08-04T16:12:13.725Z,2.05
2022-08-04T16:14:40.191Z,1.33
2022-08-04T16:17:06.448Z,1.67
2022-08-04T16:19:35.917Z,1.48
2022-08-04T16:22:02.271Z,1.30
2022-08-04T16:24:28.597Z,1.67
2022-08-04T16:26:56.214Z,1.90
2022-08-04T16:29:23.015Z,2.33
2022-08-04T16:31:49.245Z,1.73
2022-08-04T16:34:47.939Z,1.63
2022-08-04T16:37:01.771Z,2.10
2022-08-04T16:39:28.143Z,1.70
2022-08-04T16:41:54.560Z,1.85
2022-08-04T16:44:43.053Z,1.75
2022-08-04T16:47:21.846Z,1.70
2022-08-04T16:49:49.491Z,1.85
2022-08-04T16:54:44.556Z,1.73
2022-08-04T16:57:10.792Z,1.65
2022-08-04T16:59:37.038Z,1.63
2022-08-04T17:02:03.303Z,1.77
2022-08-04T17:04:29.596Z,1.50
2022-08-04T17:06:55.822Z,2.10
2022-08-04T17:09:26.784Z,1.38
2022-08-04T17:12:00.776Z,1.88
2022-08-04T17:14:27.065Z,2.30
2022-08-04T17:16:53.509Z,1.60
2022-08-04T17:19:25.999Z,1.20
2022-08-04T17:21:52.889Z,1.58
2022-08-04T17:24:19.119Z,1.52
2022-08-04T17:26:53.683Z,1.70
2022-08-04T17:29:21.070Z,1.67
2022-08-04T17:31:47.969Z,1.17
2022-08-04T17:34:15.903Z,2.05
2022-08-04T17:36:45.693Z,2.00
2022-08-04T17:39:16.989Z,2.05
2022-08-04T17:44:29.773Z,1.75
2022-08-04T17:46:56.011Z,1.40
2022-08-04T17:49:22.700Z,1.83
2022-08-04T17:52:04.387Z,1.58
2022-08-04T17:54:36.701Z,1.48
2022-08-04T17:57:03.120Z,8.15
2022-08-04T17:59:55.681Z,2.63
2022-08-04T18:02:15.559Z,1.73
2022-08-04T18:08:39.151Z,14.77
2022-08-04T18:10:31.021Z,7.03
2022-08-04T18:13:00.665Z,2.75
2022-08-04T18:15:26.902Z,1.73
2022-08-04T18:18:20.951Z,1.92
2022-08-04T18:20:50.098Z,1.88
2022-08-04T18:23:16.915Z,1.88
2022-08-04T18:25:51.537Z,1.65
2022-08-04T18:28:22.720Z,1.90
2022-08-04T18:30:55.670Z,1.40
2022-08-04T18:36:32.565Z,1.60
2022-08-04T18:38:55.620Z,2.38
2022-08-04T18:41:24.667Z,1.92
2022-08-04T18:43:55.628Z,1.75
2022-08-04T18:46:22.830Z,1.98
2022-08-04T18:48:53.042Z,1.67
2022-08-04T18:51:22.674Z,1.25
2022-08-04T18:53:55.281Z,1.90
2022-08-04T18:56:29.927Z,2.10
2022-08-04T18:59:00.038Z,2.25
2022-08-04T19:01:30.141Z,2.45
2022-08-04T19:04:33.012Z,2.30
2022-08-04T19:06:58.853Z,2.63
2022-08-04T19:09:45.137Z,2.33
2022-08-04T19:12:26.895Z,2.30
2022-08-04T19:14:58.002Z,2.17
2022-08-04T19:17:55.130Z,2.05
2022-08-04T19:20:16.056Z,1.88
2022-08-04T19:24:28.194Z,2.17
2022-08-04T19:25:58.678Z,2.97
2022-08-04T19:28:23.105Z,2.55
2022-08-04T19:30:54.345Z,3.15
2022-08-04T19:33:24.969Z,3.55
2022-08-04T19:35:51.634Z,2.67
2022-08-04T19:38:17.861Z,2.15
2022-08-04T19:40:52.509Z,2.08
2022-08-04T19:43:19.307Z,3.05
2022-08-04T19:45:45.935Z,2.25
2022-08-04T19:50:58.472Z,2.00
2022-08-04T19:53:26.773Z,2.00
2022-08-04T19:56:04.049Z,2.95
2022-08-04T19:58:30.286Z,3.42
2022-08-04T20:00:56.612Z,2.15
2022-08-04T20:03:22.836Z,2.60
2022-08-04T20:06:09.095Z,2.38
2022-08-04T20:08:35.303Z,2.85
2022-08-04T20:11:01.594Z,2.60
2022-08-04T20:13:37.177Z,2.35
2022-08-04T20:16:04.120Z,3.08
2022-08-04T20:18:36.505Z,2.42
2022-08-04T20:21:19.660Z,2.63
2022-08-04T20:23:50.676Z,3.15
2022-08-04T20:26:16.930Z,2.78
2022-08-04T20:28:45.743Z,2.42
2022-08-04T20:31:12.492Z,2.55
2022-08-04T20:33:44.759Z,2.53
2022-08-04T20:36:19.903Z,2.65
2022-08-04T20:38:51.647Z,3.30
2022-08-04T20:41:19.208Z,2.72
2022-08-04T20:43:49.565Z,2.95
2022-08-04T20:46:18.240Z,2.92
2022-08-04T20:48:45.110Z,3.50
2022-08-04T20:51:11.417Z,3.45
2022-08-04T20:53:52.826Z,3.47
2022-08-04T20:56:30.322Z,3.15
2022-08-04T20:58:57.715Z,3.00
2022-08-04T21:01:29.598Z,3.25
2022-08-04T21:03:59.793Z,3.15
2022-08-04T21:06:27.259Z,2.95
2022-08-04T21:08:57.333Z,3.13
2022-08-04T21:11:23.960Z,2.95
2022-08-04T21:13:58.755Z,3.63
2022-08-04T21:16:53.927Z,3.03
2022-08-04T21:19:13.133Z,3.00
2022-08-04T21:21:40.263Z,4.00
2022-08-04T21:24:06.626Z,4.18
2022-08-04T21:26:32.908Z,4.20
2022-08-04T21:28:59.128Z,4.53
2022-08-04T21:31:25.927Z,3.78
2022-08-04T21:33:52.409Z,3.20
2022-08-04T21:36:19.788Z,3.83
2022-08-04T21:38:51.522Z,3.47
2022-08-04T21:41:24.301Z,3.60
2022-08-04T21:43:51.504Z,3.55
2022-08-04T21:46:18.377Z,4.35
2022-08-04T21:48:44.673Z,3.90
2022-08-04T21:51:56.775Z,3.38
2022-08-04T21:54:01.112Z,3.60
2022-08-04T21:56:27.360Z,4.00
2022-08-04T21:58:55.430Z,4.05
2022-08-04T22:01:50.418Z,3.80
2022-08-04T22:04:10.483Z,3.92
2022-08-04T22:06:38.705Z,3.90
2022-08-04T22:09:06.376Z,4.22
2022-08-04T22:11:48.149Z,3.50
2022-08-04T22:14:15.492Z,4.03
2022-08-04T22:16:41.715Z,3.92
2022-08-04T22:19:08.946Z,4.22
2022-08-04T22:21:39.087Z,4.10
2022-08-04T22:24:13.962Z,4.00
2022-08-04T22:26:40.600Z,3.58
2022-08-04T22:29:06.810Z,3.33
2022-08-04T22:31:53.268Z,4.13
2022-08-04T22:34:23.956Z,4.35
2022-08-04T22:36:50.289Z,4.30
2022-08-04T22:39:16.528Z,4.57
2022-08-04T22:42:02.977Z,4.80
2022-08-04T22:44:29.658Z,6.35
2022-08-04T22:46:58.772Z,4.90
2022-08-04T22:49:31.593Z,4.13
2022-08-04T22:51:58.883Z,4.20
2022-08-04T22:54:28.557Z,3.97
2022-08-04T22:56:56.042Z,4.68
2022-08-04T22:59:22.938Z,4.65
2022-08-04T23:02:00.679Z,4.05
2022-08-04T23:04:28.137Z,4.35
2022-08-04T23:06:54.413Z,4.20
2022-08-04T23:09:21.110Z,4.25
2022-08-04T23:11:53.896Z,3.95
2022-08-04T23:14:25.135Z,4.40
2022-08-04T23:16:51.445Z,4.15
2022-08-04T23:19:19.549Z,4.45
2022-08-04T23:22:02.021Z,5.07
2022-08-04T23:24:29.866Z,3.65
2022-08-04T23:26:56.303Z,4.57
2022-08-04T23:29:22.530Z,4.72
2022-08-04T23:31:59.919Z,4.63
2022-08-04T23:34:26.842Z,4.43
2022-08-04T23:36:55.523Z,4.93
2022-08-04T23:39:21.807Z,4.55
2022-08-04T23:41:53.366Z,5.13
2022-08-04T23:44:24.926Z,4.07
2022-08-04T23:46:53.331Z,3.97
2022-08-04T23:49:19.719Z,4.78
2022-08-04T23:51:45.948Z,4.65
2022-08-04T23:54:15.984Z,5.22
2022-08-04T23:56:49.772Z,5.03
2022-08-04T23:59:17.959Z,3.92
